Time;durP1;ratioP1;P1;durP2;ratioP2;P2;SDS_P1;SDS_P2;PMS_P1;PMS_P2;Temp;Humidity;BMP_temperature;BMP_pressure;BME280_temperature;BME280_humidity;BME280_pressure;Samples;Min_cycle;Max_cycle;Signal;HPM_P1;HPM_P2
2021/08/07 00:02:11;;;;;;;5.75;2.92;;;;;;;;;;6318852;28;20462;-81
2021/08/07 00:05:12;;;;;;;5.20;2.55;;;15.30;99.90;;;;;;6319044;28;20071;-81
2021/08/07 00:08:13;;;;;;;2.70;2.30;;;;;;;;;;6319203;28;20035;-81
2021/08/07 00:11:14;;;;;;;3.65;2.50;;;15.10;99.90;;;;;;6320216;28;20442;-81
2021/08/07 00:14:15;;;;;;;5.05;2.70;;;;;;;;;;6302165;28;20067;-82
2021/08/07 00:17:15;;;;;;;3.22;2.45;;;;;;;;;;6319974;28;20020;-81
2021/08/07 00:20:16;;;;;;;5.07;3.10;;;;;;;;;;6318199;28;20059;-81
2021/08/07 00:23:17;;;;;;;5.47;2.40;;;;;;;;;;6317555;28;20024;-81
2021/08/07 00:26:18;;;;;;;6.25;2.60;;;15.00;99.90;;;;;;6318569;28;20358;-80
2021/08/07 00:29:19;;;;;;;6.32;2.40;;;15.40;99.90;;;;;;6318441;28;20028;-80
2021/08/07 00:32:19;;;;;;;8.27;2.40;;;15.50;99.90;;;;;;6318343;28;20028;-80
2021/08/07 00:35:20;;;;;;;4.90;2.35;;;15.30;99.90;;;;;;6319272;28;20032;-80
2021/08/07 00:38:20;;;;;;;3.33;2.50;;;15.40;99.90;;;;;;6318138;28;20496;-81
2021/08/07 00:41:21;;;;;;;6.13;2.70;;;15.40;99.90;;;;;;6301582;28;20043;-80
2021/08/07 00:44:21;;;;;;;5.40;2.47;;;15.30;99.90;;;;;;6319444;28;20028;-81
2021/08/07 00:47:22;;;;;;;4.35;2.65;;;15.70;99.90;;;;;;6300870;28;20062;-81
2021/08/07 00:50:23;;;;;;;5.53;2.60;;;15.30;99.90;;;;;;6318143;28;20016;-81
2021/08/07 00:53:23;;;;;;;5.55;2.40;;;15.30;99.90;;;;;;6300881;28;20087;-81
2021/08/07 00:56:24;;;;;;;3.15;2.28;;;15.60;99.90;;;;;;6317114;28;20039;-81
2021/08/07 00:59:24;;;;;;;3.85;2.35;;;15.40;99.90;;;;;;6318994;28;20036;-81
2021/08/07 01:02:25;;;;;;;7.22;2.70;;;15.40;99.90;;;;;;6300705;28;20028;-81
2021/08/07 01:05:35;;;;;;;5.63;2.53;;;15.40;99.90;;;;;;6317803;28;20466;-82
2021/08/07 01:08:40;;;;;;;4.53;2.50;;;15.40;99.90;;;;;;6301533;28;20019;-81
2021/08/07 01:11:56;;;;;;;5.13;2.60;;;15.50;99.90;;;;;;6300728;28;20039;-82
2021/08/07 01:14:56;;;;;;;6.35;2.45;;;15.50;99.90;;;;;;6319006;28;20089;-81
2021/08/07 01:17:57;;;;;;;3.88;2.53;;;15.40;99.90;;;;;;6300347;28;20446;-82
2021/08/07 01:20:57;;;;;;;5.47;2.22;;;15.40;99.90;;;;;;6300224;28;20035;-81
2021/08/07 01:24:04;;;;;;;3.95;2.20;;;15.80;99.90;;;;;;6300210;28;20103;-82
2021/08/07 01:27:22;;;;;;;3.65;2.25;;;15.20;99.90;;;;;;6300300;28;20081;-81
2021/08/07 01:30:22;;;;;;;5.22;2.50;;;15.40;99.90;;;;;;6316927;28;20031;-81
2021/08/07 01:33:25;;;;;;;5.22;2.47;;;15.50;99.90;;;;;;6300209;28;20024;-82
2021/08/07 01:36:26;;;;;;;5.10;2.95;;;15.50;99.90;;;;;;6283188;28;20169;-82
2021/08/07 01:39:26;;;;;;;6.30;3.65;;;15.30;99.90;;;;;;6299749;28;20036;-82
2021/08/07 01:42:27;;;;;;;8.18;3.38;;;;;;;;;;6316644;28;20063;-82
2021/08/07 01:45:28;;;;;;;3.85;2.38;;;15.60;99.90;;;;;;6317081;28;20032;-81
2021/08/07 01:48:29;;;;;;;3.47;2.47;;;;;;;;;;6299810;28;20020;-82
2021/08/07 01:51:48;;;;;;;4.78;2.58;;;15.30;99.90;;;;;;6318765;28;20054;-81
2021/08/07 01:54:51;;;;;;;2.95;2.42;;;15.60;99.90;;;;;;6302591;28;20040;-81
2021/08/07 01:57:59;;;;;;;5.38;3.00;;;15.50;99.90;;;;;;6316532;28;20020;-82
2021/08/07 02:01:00;;;;;;;5.28;2.42;;;15.50;99.90;;;;;;6266952;28;20036;-82
2021/08/07 02:04:01;;;;;;;4.57;2.75;;;15.50;99.90;;;;;;6282576;28;20062;-82
2021/08/07 02:07:02;;;;;;;4.28;2.60;;;15.50;99.90;;;;;;6282835;28;20039;-81
2021/08/07 02:10:04;;;;;;;4.32;2.72;;;15.40;99.90;;;;;;6317604;28;20032;-81
2021/08/07 02:13:05;;;;;;;6.28;3.22;;;15.40;99.90;;;;;;6299697;28;20448;-81
2021/08/07 02:16:06;;;;;;;6.63;3.08;;;15.50;99.90;;;;;;6299781;28;20032;-82
2021/08/07 02:19:07;;;;;;;6.68;2.60;;;15.30;99.90;;;;;;6299291;28;20036;-81
2021/08/07 02:22:08;;;;;;;4.32;2.85;;;15.40;99.90;;;;;;6316766;28;20118;-81
2021/08/07 02:25:10;;;;;;;4.18;2.88;;;15.40;99.90;;;;;;6282771;28;20028;-82
2021/08/07 02:28:11;;;;;;;4.65;2.70;;;15.40;99.90;;;;;;6299851;28;20049;-82
2021/08/07 02:31:12;;;;;;;5.57;2.88;;;15.40;99.90;;;;;;6299682;28;20099;-82
2021/08/07 02:34:12;;;;;;;4.28;2.90;;;15.50;99.90;;;;;;6282771;28;20035;-83
2021/08/07 02:37:13;;;;;;;7.57;2.78;;;15.80;99.90;;;;;;6282540;28;20085;-82
2021/08/07 02:40:13;;;;;;;4.68;2.80;;;15.40;99.90;;;;;;6298916;28;20147;-82
2021/08/07 02:43:15;;;;;;;4.10;2.47;;;15.40;99.90;;;;;;6298959;28;20411;-81
2021/08/07 02:46:15;;;;;;;6.35;2.63;;;15.40;99.90;;;;;;6299202;28;20028;-82
2021/08/07 02:49:16;;;;;;;4.22;2.63;;;15.60;99.90;;;;;;6321179;28;20031;-82
2021/08/07 02:52:16;;;;;;;4.10;2.47;;;15.30;99.90;;;;;;6286726;28;20378;-82
2021/08/07 02:55:17;;;;;;;5.32;2.60;;;15.50;99.90;;;;;;6303983;28;20034;-82
2021/08/07 02:58:18;;;;;;;4.72;2.67;;;16.00;99.90;;;;;;6287419;28;20071;-81
2021/08/07 03:01:18;;;;;;;4.45;2.63;;;15.40;99.90;;;;;;6303820;28;20032;-82
2021/08/07 03:04:19;;;;;;;7.53;3.35;;;;;;;;;;6320188;28;20024;-82
2021/08/07 03:07:20;;;;;;;3.33;2.85;;;;;;;;;;6321968;28;20024;-82
2021/08/07 03:10:21;;;;;;;3.47;2.50;;;;;;;;;;6321493;28;20035;-82
2021/08/07 03:13:22;;;;;;;3.05;2.22;;;;;;;;;;6287118;28;20012;-83
2021/08/07 03:16:23;;;;;;;5.28;3.05;;;15.60;99.90;;;;;;6320343;28;20545;-83
2021/08/07 03:19:23;;;;;;;4.57;2.53;;;15.70;99.90;;;;;;6303312;28;20032;-82
2021/08/07 03:22:24;;;;;;;6.07;2.92;;;15.60;99.90;;;;;;6303496;28;20428;-82
2021/08/07 03:25:25;;;;;;;3.40;2.70;;;15.60;99.90;;;;;;6303330;28;20153;-82
2021/08/07 03:28:25;;;;;;;2.92;2.50;;;15.50;99.90;;;;;;6286482;28;20027;-82
2021/08/07 03:31:26;;;;;;;4.82;2.92;;;15.60;99.90;;;;;;6302798;28;20106;-83
2021/08/07 03:34:26;;;;;;;5.55;2.75;;;15.40;99.90;;;;;;6321035;28;20031;-83
2021/08/07 03:37:27;;;;;;;3.75;2.72;;;15.40;99.90;;;;;;6302782;28;20032;-82
2021/08/07 03:40:28;;;;;;;7.90;3.03;;;15.30;99.90;;;;;;6319227;28;20539;-82
2021/08/07 03:43:28;;;;;;;5.13;3.00;;;15.30;99.90;;;;;;6286329;28;20039;-82
2021/08/07 03:46:29;;;;;;;7.00;3.22;;;15.40;99.90;;;;;;6302536;28;20052;-83
2021/08/07 03:49:29;;;;;;;5.32;2.75;;;15.40;99.90;;;;;;6319617;28;20077;-81
2021/08/07 03:52:30;;;;;;;6.93;3.00;;;15.40;99.90;;;;;;6320542;28;20064;-82
2021/08/07 03:55:31;;;;;;;5.95;3.17;;;15.40;99.90;;;;;;6302371;28;20034;-81
2021/08/07 03:58:31;;;;;;;5.95;3.00;;;15.40;99.90;;;;;;6320859;28;20028;-83
2021/08/07 04:01:32;;;;;;;7.97;2.88;;;15.50;99.90;;;;;;6285938;28;20024;-81
2021/08/07 04:04:32;;;;;;;5.00;2.70;;;15.60;99.90;;;;;;6285710;28;20438;-82
2021/08/07 04:07:33;;;;;;;4.75;3.10;;;15.50;99.90;;;;;;6319234;28;20020;-82
2021/08/07 04:10:33;;;;;;;3.33;2.85;;;15.50;99.90;;;;;;6320343;28;20036;-82
2021/08/07 04:13:34;;;;;;;4.47;2.55;;;15.50;99.90;;;;;;6301804;28;20020;-81
2021/08/07 04:16:35;;;;;;;4.03;2.65;;;15.50;99.90;;;;;;6301783;28;20024;-82
2021/08/07 04:19:35;;;;;;;4.13;2.53;;;15.50;99.90;;;;;;6285156;28;20036;-82
2021/08/07 04:22:36;;;;;;;2.53;2.33;;;15.50;99.90;;;;;;6318408;28;20115;-82
2021/08/07 04:25:37;;;;;;;5.60;3.30;;;15.40;99.90;;;;;;6301855;28;20446;-83
2021/08/07 04:28:37;;;;;;;11.63;6.75;;;15.50;99.90;;;;;;6301579;28;20036;-82
2021/08/07 04:31:38;;;;;;;16.67;9.45;;;15.40;99.90;;;;;;6318868;28;20036;-82
2021/08/07 04:34:38;;;;;;;13.02;7.93;;;15.50;99.90;;;;;;6319527;28;20036;-82
2021/08/07 04:37:55;;;;;;;12.30;7.22;;;15.50;99.90;;;;;;6318268;28;20042;-82
2021/08/07 04:40:55;;;;;;;10.35;5.70;;;15.30;99.90;;;;;;6301500;28;20028;-82
2021/08/07 04:43:56;;;;;;;9.30;6.57;;;15.30;99.90;;;;;;6284735;28;20024;-82
2021/08/07 04:46:57;;;;;;;11.90;7.80;;;15.20;99.90;;;;;;6301102;28;20032;-82
2021/08/07 04:49:57;;;;;;;12.45;5.97;;;15.40;99.90;;;;;;6318048;28;20028;-82
2021/08/07 04:52:58;;;;;;;9.82;5.55;;;15.20;99.90;;;;;;6284128;28;20055;-82
2021/08/07 04:55:59;;;;;;;5.68;3.40;;;15.30;99.90;;;;;;6301135;28;20024;-82
2021/08/07 04:58:59;;;;;;;8.43;3.83;;;15.40;99.90;;;;;;6284565;28;20035;-82
2021/08/07 05:02:00;;;;;;;7.45;3.38;;;15.50;99.90;;;;;;6318780;28;20587;-82
2021/08/07 05:05:00;;;;;;;4.45;2.95;;;15.50;99.90;;;;;;6317495;28;20043;-82
2021/08/07 05:08:01;;;;;;;4.15;2.80;;;15.60;99.90;;;;;;6283900;28;20734;-82
2021/08/07 05:11:01;;;;;;;5.22;2.85;;;15.60;99.90;;;;;;6317041;28;20043;-81
2021/08/07 05:14:03;;;;;;;4.78;3.20;;;15.70;99.90;;;;;;6317695;28;20056;-82
2021/08/07 05:17:04;;;;;;;5.40;2.90;;;16.20;99.90;;;;;;6283924;28;20063;-83
2021/08/07 05:20:05;;;;;;;4.07;3.17;;;17.50;99.90;;;;;;6283513;28;20621;-82
2021/08/07 05:23:06;;;;;;;10.70;3.80;;;18.20;99.90;;;;;;6317457;28;20024;-82
2021/08/07 05:26:07;;;;;;;5.40;3.88;;;18.40;99.90;;;;;;6300413;28;20051;-81
2021/08/07 05:29:08;;;;;;;4.40;3.55;;;18.30;99.90;;;;;;6316852;28;20020;-81
2021/08/07 05:32:09;;;;;;;4.28;3.15;;;;;;;;;;6299608;28;20035;-81
2021/08/07 05:35:10;;;;;;;5.38;3.30;;;18.10;99.90;;;;;;6316840;28;20473;-81
2021/08/07 05:38:10;;;;;;;4.32;3.15;;;18.50;99.90;;;;;;6300111;28;20145;-81
2021/08/07 05:41:11;;;;;;;5.00;2.90;;;18.50;99.90;;;;;;6300259;28;20028;-81
2021/08/07 05:44:12;;;;;;;4.60;2.92;;;17.80;99.90;;;;;;6317051;28;20054;-81
2021/08/07 05:47:12;;;;;;;5.72;3.47;;;17.60;99.90;;;;;;6316481;28;20032;-81
2021/08/07 05:50:13;;;;;;;4.95;3.38;;;18.90;99.90;;;;;;6282618;28;20355;-81
2021/08/07 05:53:13;;;;;;;5.40;2.90;;;17.20;99.90;;;;;;6299145;28;20052;-81
2021/08/07 05:56:14;;;;;;;4.22;2.70;;;17.30;99.90;;;;;;6317939;28;20521;-81
2021/08/07 05:59:15;;;;;;;3.88;2.75;;;17.50;99.90;;;;;;6300281;28;20377;-81
2021/08/07 06:02:16;;;;;;;4.38;2.88;;;;;;;;;;6317871;28;20034;-81
2021/08/07 06:05:17;;;;;;;4.22;3.00;;;;;;;;;;6299795;28;20111;-81
2021/08/07 06:08:18;;;;;;;4.32;3.00;;;;;;;;;;6316314;28;20032;-81
2021/08/07 06:11:18;;;;;;;4.13;2.60;;;17.30;99.90;;;;;;6315955;28;20032;-81
2021/08/07 06:14:19;;;;;;;5.03;2.85;;;;;;;;;;6299597;28;20741;-81
2021/08/07 06:17:20;;;;;;;5.75;3.08;;;17.40;99.90;;;;;;6317846;28;20369;-82
2021/08/07 06:20:23;;;;;;;6.28;2.90;;;;;;;;;;6286964;28;20040;-82
2021/08/07 06:23:23;;;;;;;4.65;2.90;;;17.30;99.90;;;;;;6288335;28;20028;-81
2021/08/07 06:26:25;;;;;;;6.45;2.90;;;17.30;99.90;;;;;;6304300;28;20458;-81
2021/08/07 06:29:45;;;;;;;4.53;2.60;;;17.30;99.90;;;;;;6287696;28;20059;-80
2021/08/07 06:32:46;;;;;;;6.25;2.85;;;17.30;99.90;;;;;;6320864;28;20070;-79
2021/08/07 06:35:47;;;;;;;5.00;3.03;;;;;;;;;;6320885;28;20080;-81
2021/08/07 06:38:48;;;;;;;4.05;2.50;;;17.30;99.90;;;;;;6321728;28;20095;-81
2021/08/07 06:41:48;;;;;;;7.70;3.08;;;17.40;99.90;;;;;;6303842;28;20028;-81
2021/08/07 06:44:49;;;;;;;7.30;3.10;;;;;;;;;;6320823;28;20035;-85
2021/08/07 06:47:50;;;;;;;6.97;2.85;;;17.60;99.90;;;;;;6287448;28;20068;-81
2021/08/07 06:50:50;;;;;;;6.45;3.25;;;17.70;99.90;;;;;;6282926;28;20465;-81
2021/08/07 06:53:51;;;;;;;6.93;3.10;;;17.90;99.90;;;;;;6302194;28;20889;-81
2021/08/07 06:56:51;;;;;;;5.63;2.90;;;18.00;99.90;;;;;;6303332;28;20081;-82
2021/08/07 06:59:52;;;;;;;4.38;2.72;;;18.00;99.90;;;;;;6303279;28;20039;-81
2021/08/07 07:02:53;;;;;;;5.30;3.00;;;18.00;99.90;;;;;;6286319;28;20031;-80
2021/08/07 07:05:53;;;;;;;9.30;4.32;;;17.90;99.90;;;;;;6320284;28;20115;-80
2021/08/07 07:08:54;;;;;;;4.65;2.50;;;17.90;99.90;;;;;;6286759;28;20370;-81
2021/08/07 07:11:54;;;;;;;3.90;2.83;;;17.90;99.90;;;;;;6302829;28;20690;-81
2021/08/07 07:14:55;;;;;;;4.63;2.70;;;18.00;99.90;;;;;;6285720;28;20063;-84
2021/08/07 07:17:56;;;;;;;4.55;2.78;;;18.00;99.90;;;;;;6302793;28;20019;-81
2021/08/07 07:20:56;;;;;;;5.18;2.70;;;18.00;99.90;;;;;;6301438;28;20077;-82
2021/08/07 07:23:57;;;;;;;7.03;3.33;;;17.90;99.90;;;;;;6302400;28;20070;-82
2021/08/07 07:26:58;;;;;;;7.20;3.38;;;17.90;99.90;;;;;;6286678;28;20591;-85
2021/08/07 07:29:59;;;;;;;4.70;2.60;;;17.80;99.90;;;;;;6300928;28;20020;-83
2021/08/07 07:32:59;;;;;;;3.83;2.83;;;17.20;99.90;;;;;;6284331;28;20097;-84
2021/08/07 07:36:00;;;;;;;5.57;2.95;;;17.90;99.90;;;;;;6284388;28;20051;-84
2021/08/07 07:39:01;;;;;;;4.13;3.15;;;17.80;99.90;;;;;;6286507;28;20062;-83
2021/08/07 07:42:20;;;;;;;4.40;3.10;;;18.30;99.90;;;;;;6285844;28;20479;-83
2021/08/07 07:45:24;;;;;;;5.00;3.13;;;18.00;99.90;;;;;;6286646;28;20051;-91
2021/08/07 07:48:24;;;;;;;5.15;3.50;;;18.70;99.90;;;;;;6287198;28;20089;-84
2021/08/07 07:51:25;;;;;;;10.57;3.97;;;17.90;99.90;;;;;;6286261;28;20059;-87
2021/08/07 07:54:26;;;;;;;6.80;3.67;;;18.10;99.90;;;;;;6285128;28;20056;-86
2021/08/07 07:57:26;;;;;;;6.80;4.15;;;18.00;99.90;;;;;;6286532;28;20107;-85
2021/08/07 08:00:34;;;;;;;5.68;3.88;;;18.00;99.90;;;;;;6282285;28;20351;-90
2021/08/07 08:03:35;;;;;;;5.68;3.22;;;16.60;99.90;;;;;;6300860;28;20032;-89
2021/08/07 08:06:35;;;;;;;4.85;3.28;;;;;;;;;;6285908;28;20024;-89
2021/08/07 08:09:36;;;;;;;8.70;3.58;;;;;;;;;;6298962;28;20024;-88
2021/08/07 08:12:38;;;;;;;5.20;3.10;;;17.90;99.90;;;;;;6288411;28;20458;-85
2021/08/07 08:15:40;;;;;;;6.47;3.25;;;;;;;;;;6285273;28;20024;-87
2021/08/07 08:18:41;;;;;;;6.03;3.40;;;17.90;99.90;;;;;;6293503;28;20126;-87
2021/08/07 08:21:41;;;;;;;4.65;2.95;;;18.50;99.90;;;;;;6284740;28;20042;-86
2021/08/07 08:24:42;;;;;;;5.63;2.97;;;;;;;;;;6284521;28;20020;-85
2021/08/07 08:27:43;;;;;;;4.82;2.92;;;17.80;99.90;;;;;;6297637;28;20034;-82
2021/08/07 08:30:43;;;;;;;6.28;3.20;;;17.90;99.90;;;;;;6299933;28;20466;-85
2021/08/07 08:33:44;;;;;;;6.00;3.00;;;17.50;99.90;;;;;;6284504;28;20046;-84
2021/08/07 08:36:44;;;;;;;6.50;3.67;;;17.50;99.90;;;;;;6283972;28;20024;-85
2021/08/07 08:39:45;;;;;;;6.70;3.40;;;17.50;99.90;;;;;;6301254;28;20075;-86
2021/08/07 08:42:46;;;;;;;5.85;3.50;;;17.20;99.90;;;;;;6282859;28;20109;-85
2021/08/07 08:45:47;;;;;;;5.82;2.78;;;;;;;;;;6282714;28;20468;-83
2021/08/07 08:48:47;;;;;;;5.18;3.13;;;16.80;99.90;;;;;;6284913;28;20032;-85
2021/08/07 08:51:49;;;;;;;4.15;2.83;;;16.80;99.90;;;;;;6300994;28;20052;-86
2021/08/07 08:54:49;;;;;;;6.93;3.60;;;17.20;99.90;;;;;;6317774;28;20032;-82
2021/08/07 08:57:50;;;;;;;6.23;3.63;;;17.10;99.90;;;;;;6281270;28;20125;-83
2021/08/07 09:00:51;;;;;;;5.47;3.40;;;;;;;;;;6297249;28;20072;-84
2021/08/07 09:03:52;;;;;;;4.07;3.20;;;;;;;;;;6315763;28;20020;-86
2021/08/07 09:06:53;;;;;;;5.35;3.10;;;;;;;;;;6316836;28;20449;-89
2021/08/07 09:10:15;;;;;;;6.10;3.08;;;17.00;99.90;;;;;;6301626;28;20127;-89
2021/08/07 09:13:24;;;;;;;4.15;2.92;;;17.10;99.90;;;;;;6285014;28;20024;-90
2021/08/07 09:17:10;;;;;;;5.15;3.42;;;17.10;99.90;;;;;;6284678;28;20195;-92
2021/08/07 09:20:28;;;;;;;4.80;3.20;;;17.10;99.90;;;;;;6309779;28;20508;-90
2021/08/07 09:23:30;;;;;;;3.78;3.03;;;17.40;99.90;;;;;;6300835;28;20028;-85
2021/08/07 09:26:31;;;;;;;3.67;3.38;;;17.50;99.90;;;;;;6300263;28;20043;-86
2021/08/07 09:29:35;;;;;;;7.68;3.65;;;17.10;99.90;;;;;;6283618;28;20457;-85
2021/08/07 09:32:50;;;;;;;3.60;3.17;;;17.10;99.90;;;;;;6299845;28;20027;-87
2021/08/07 09:35:50;;;;;;;6.55;3.28;;;17.10;99.90;;;;;;6295362;28;20377;-87
2021/08/07 09:38:51;;;;;;;5.00;2.90;;;17.10;99.90;;;;;;6281791;28;20473;-86
2021/08/07 09:41:58;;;;;;;5.00;3.20;;;17.20;99.90;;;;;;6282722;28;20024;-86
2021/08/07 09:45:00;;;;;;;4.55;3.40;;;17.20;99.90;;;;;;6299657;28;20120;-86
2021/08/07 09:48:06;;;;;;;5.88;3.30;;;17.50;99.90;;;;;;6316531;28;20036;-86
2021/08/07 09:51:23;;;;;;;4.15;3.15;;;17.50;99.90;;;;;;6282978;28;20111;-87
2021/08/07 09:54:23;;;;;;;5.88;2.97;;;17.70;99.90;;;;;;6298517;28;20397;-85
2021/08/07 09:57:28;;;;;;;4.10;2.90;;;17.30;99.90;;;;;;6281504;28;20024;-83
2021/08/07 10:00:39;;;;;;;4.00;2.88;;;17.50;99.90;;;;;;6299933;28;20474;-86
2021/08/07 10:03:39;;;;;;;3.25;2.67;;;17.50;99.90;;;;;;6297391;28;20016;-87
2021/08/07 10:06:41;;;;;;;4.47;2.97;;;17.80;99.90;;;;;;6283380;28;20527;-86
2021/08/07 10:09:42;;;;;;;3.97;3.05;;;17.70;99.90;;;;;;6283734;28;20058;-87
2021/08/07 10:12:46;;;;;;;5.65;3.38;;;18.00;99.90;;;;;;6300564;28;20035;-86
2021/08/07 10:15:46;;;;;;;3.97;3.03;;;18.20;99.90;;;;;;6283319;28;20028;-88
2021/08/07 10:18:50;;;;;;;11.68;4.47;;;18.30;99.90;;;;;;6283550;28;20047;-89
2021/08/07 10:21:51;;;;;;;4.50;3.17;;;20.10;99.90;;;;;;6284239;28;20027;-87
2021/08/07 10:24:51;;;;;;;6.45;3.33;;;19.00;99.90;;;;;;6282547;28;20031;-89
2021/08/07 10:27:59;;;;;;;7.25;3.83;;;18.70;99.90;;;;;;6282325;28;20385;-87
2021/08/07 10:30:59;;;;;;;6.10;3.20;;;18.90;99.90;;;;;;6282757;28;20499;-86
2021/08/07 10:34:05;;;;;;;5.70;3.03;;;18.80;99.90;;;;;;6282653;28;20028;-87
2021/08/07 10:37:05;;;;;;;3.67;2.80;;;18.60;99.90;;;;;;6299979;28;20507;-87
2021/08/07 10:40:07;;;;;;;4.28;3.08;;;18.80;99.90;;;;;;6282959;28;20032;-86
2021/08/07 10:43:08;;;;;;;6.15;3.15;;;;;;;;;;6282850;28;20044;-88
2021/08/07 10:46:09;;;;;;;4.07;3.22;;;18.60;99.90;;;;;;6299827;28;20028;-88
2021/08/07 10:49:11;;;;;;;6.55;3.53;;;18.60;99.90;;;;;;6283453;28;20031;-89
2021/08/07 10:52:21;;;;;;;;;;;18.70;99.90;;;;;;6282338;28;20528;-89
2021/08/07 10:55:43;;;;;;;4.07;3.25;;;17.90;99.90;;;;;;6316988;28;19911;-87
2021/08/07 10:58:45;;;;;;;8.85;4.40;;;18.50;99.90;;;;;;6316454;28;20368;-87
2021/08/07 11:01:47;;;;;;;11.32;4.18;;;18.80;99.90;;;;;;6282793;28;20028;-86
2021/08/07 11:04:52;;;;;;;11.43;4.18;;;18.50;99.90;;;;;;6299347;28;20039;-87
2021/08/07 11:08:16;;;;;;;6.80;3.00;;;18.70;99.90;;;;;;6300333;28;20055;-83
2021/08/07 11:11:26;;;;;;;3.67;2.80;;;18.60;99.90;;;;;;6324916;28;20024;-83
2021/08/07 11:15:05;;;;;;;4.68;2.72;;;18.40;99.90;;;;;;6291058;28;20042;-83
2021/08/07 11:18:24;;;;;;;4.38;2.80;;;20.30;99.90;;;;;;6275794;28;20389;-83
2021/08/07 11:21:53;;;;;;;4.63;2.95;;;18.50;99.90;;;;;;6276524;28;20086;-84
2021/08/07 11:24:56;;;;;;;4.40;2.83;;;18.30;99.90;;;;;;6275948;28;20040;-84
2021/08/07 11:27:59;;;;;;;3.70;2.67;;;18.30;99.90;;;;;;6276270;28;20386;-83
2021/08/07 11:31:13;;;;;;;4.63;2.72;;;18.20;99.90;;;;;;6292861;28;20024;-87
2021/08/07 11:34:20;;;;;;;4.55;2.78;;;18.20;99.90;;;;;;6292808;28;20075;-85
2021/08/07 11:37:23;;;;;;;4.35;2.97;;;18.10;99.90;;;;;;6288058;28;20109;-85
2021/08/07 11:40:37;;;;;;;5.18;3.47;;;17.90;99.90;;;;;;6274982;28;20106;-81
2021/08/07 11:43:40;;;;;;;5.63;2.85;;;17.70;99.90;;;;;;6292245;28;20039;-82
2021/08/07 11:46:41;;;;;;;3.97;2.97;;;;;;;;;;6275961;28;20028;-80
2021/08/07 11:49:42;;;;;;;7.15;3.42;;;17.80;99.90;;;;;;6299954;28;20111;-79
2021/08/07 11:52:43;;;;;;;4.15;2.92;;;;;;;;;;6301518;28;20062;-81
2021/08/07 11:55:44;;;;;;;3.53;2.63;;;;;;;;;;6293285;28;20052;-81
2021/08/07 11:58:48;;;;;;;5.68;3.40;;;17.70;99.90;;;;;;6318852;28;20040;-81
2021/08/07 12:01:49;;;;;;;5.03;3.30;;;17.60;99.90;;;;;;6320485;28;20407;-81
2021/08/07 12:05:07;;;;;;;7.18;4.22;;;17.50;99.90;;;;;;6319022;28;20028;-90
2021/08/07 12:08:11;;;;;;;4.10;3.17;;;17.30;99.90;;;;;;6285526;28;20024;-84
2021/08/07 12:11:13;;;;;;;3.83;2.75;;;17.30;99.90;;;;;;6318966;28;20043;-89
2021/08/07 12:14:26;;;;;;;4.28;2.55;;;16.90;99.90;;;;;;6285172;28;20089;-84
2021/08/07 12:17:26;;;;;;;4.15;3.30;;;16.70;99.90;;;;;;6286470;28;20111;-86
2021/08/07 12:20:28;;;;;;;6.75;3.47;;;;;;;;;;6301716;28;20382;-83
2021/08/07 12:23:39;;;;;;;5.80;3.50;;;16.70;99.90;;;;;;6319464;28;20028;-82
2021/08/07 12:26:42;;;;;;;4.28;2.88;;;16.70;99.90;;;;;;6318379;28;20013;-80
2021/08/07 12:29:43;;;;;;;5.28;3.10;;;16.60;99.90;;;;;;6318418;28;20051;-80
2021/08/07 12:32:44;;;;;;;3.78;2.90;;;16.60;99.90;;;;;;6301695;28;20016;-79
2021/08/07 12:35:44;;;;;;;4.30;2.75;;;16.60;99.90;;;;;;6317459;28;20054;-79
2021/08/07 12:38:49;;;;;;;5.13;3.35;;;16.50;99.90;;;;;;6318474;28;20173;-79
2021/08/07 12:41:50;;;;;;;4.28;2.95;;;16.50;99.90;;;;;;6301774;28;20064;-79
2021/08/07 12:45:06;;;;;;;5.60;3.33;;;16.80;99.90;;;;;;6314259;28;20030;-80
2021/08/07 12:48:07;;;;;;;4.40;2.63;;;16.70;99.90;;;;;;6317108;28;20089;-80
2021/08/07 12:51:07;;;;;;;3.35;2.90;;;16.70;99.90;;;;;;6318776;28;20070;-80
2021/08/07 12:54:16;;;;;;;5.78;3.40;;;16.80;99.90;;;;;;6283919;28;20152;-79
2021/08/07 12:57:26;;;;;;;4.25;3.10;;;17.00;99.90;;;;;;6300919;28;20081;-79
2021/08/07 13:00:28;;;;;;;4.95;3.10;;;17.00;99.90;;;;;;6317600;28;20117;-79
2021/08/07 13:03:29;;;;;;;4.68;3.33;;;17.00;99.90;;;;;;6300429;28;20032;-79
2021/08/07 13:06:31;;;;;;;6.93;3.70;;;17.20;99.90;;;;;;6317467;28;20036;-80
2021/08/07 13:09:32;;;;;;;7.40;3.20;;;16.90;99.90;;;;;;6284024;28;20031;-79
2021/08/07 13:12:41;;;;;;;5.00;3.05;;;16.70;99.90;;;;;;6300761;28;20399;-81
2021/08/07 13:15:47;;;;;;;5.68;3.15;;;16.60;99.90;;;;;;6316798;28;20027;-80
2021/08/07 13:18:51;;;;;;;3.95;3.22;;;16.50;99.90;;;;;;6300473;28;20115;-80
2021/08/07 13:21:55;;;;;;;5.97;3.25;;;16.30;99.90;;;;;;6300031;28;20032;-80
2021/08/07 13:24:57;;;;;;;4.80;2.85;;;16.60;99.90;;;;;;6301272;28;20362;-81
2021/08/07 13:28:14;;;;;;;4.57;2.90;;;16.40;99.90;;;;;;6300209;28;20016;-80
2021/08/07 13:31:14;;;;;;;4.07;3.05;;;16.40;99.90;;;;;;6300884;28;20036;-80
2021/08/07 13:34:15;;;;;;;4.30;3.35;;;16.50;99.90;;;;;;6318305;28;20129;-80
2021/08/07 13:37:16;;;;;;;7.90;5.03;;;16.30;99.90;;;;;;6300499;28;20036;-80
2021/08/07 13:40:21;;;;;;;3.60;3.00;;;16.20;99.90;;;;;;6298958;28;20101;-81
2021/08/07 13:43:22;;;;;;;6.55;2.88;;;16.10;99.90;;;;;;6317020;28;20378;-86
2021/08/07 13:46:22;;;;;;;5.82;2.65;;;16.20;99.90;;;;;;6282457;28;20019;-87
2021/08/07 13:49:24;;;;;;;4.35;2.22;;;;;;;;;;6299733;28;20028;-90
2021/08/07 13:52:24;;;;;;;3.92;2.67;;;16.00;99.90;;;;;;6290919;28;20123;-88
2021/08/07 13:55:25;;;;;;;3.55;2.72;;;16.00;99.90;;;;;;6282478;28;20036;-88
2021/08/07 13:58:26;;;;;;;4.85;2.50;;;16.10;99.90;;;;;;6283671;28;20036;-88
2021/08/07 14:01:26;;;;;;;4.35;3.03;;;16.10;99.90;;;;;;6283098;28;20439;-90
2021/08/07 14:04:27;;;;;;;3.35;2.60;;;17.30;99.90;;;;;;6283686;28;20030;-88
2021/08/07 14:07:28;;;;;;;5.70;2.83;;;;;;;;;;6282508;28;20017;-89
2021/08/07 14:10:29;;;;;;;4.63;3.03;;;;;;;;;;6298946;28;20036;-87
2021/08/07 14:13:30;;;;;;;4.68;2.70;;;16.10;99.90;;;;;;6312066;28;20024;-85
2021/08/07 14:16:31;;;;;;;4.00;2.50;;;;;;;;;;6296501;28;20032;-91
2021/08/07 14:19:40;;;;;;;4.30;2.42;;;16.10;99.90;;;;;;6298105;28;20035;-91
2021/08/07 14:22:41;;;;;;;3.05;2.60;;;;;;;;;;6280179;28;20020;-92
2021/08/07 14:25:50;;;;;;;4.10;2.95;;;16.40;99.90;;;;;;6300204;28;20115;-89
2021/08/07 14:32:15;;;;;;;3.97;2.70;;;16.50;99.90;;;;;;6202095;28;20121;-88
2021/08/07 14:35:16;;;;;;;3.00;2.50;;;;;;;;;;6197823;28;20014;-88
2021/08/07 14:38:16;;;;;;;2.63;2.10;;;16.70;99.90;;;;;;6198911;28;20030;-88
2021/08/07 14:41:17;;;;;;;2.60;2.33;;;17.00;99.90;;;;;;6182121;28;20037;-86
2021/08/07 14:44:17;;;;;;;4.60;2.35;;;16.70;99.90;;;;;;6202105;28;20041;-89
2021/08/07 14:47:18;;;;;;;4.90;2.67;;;17.00;99.90;;;;;;6203902;28;20029;-87
2021/08/07 14:50:19;;;;;;;2.13;1.92;;;16.80;99.90;;;;;;6202266;28;20132;-87
2021/08/07 14:53:19;;;;;;;1.85;1.67;;;17.00;99.90;;;;;;6202776;28;20133;-88
2021/08/07 14:56:20;;;;;;;2.45;2.20;;;16.90;99.90;;;;;;6187315;28;20111;-88
2021/08/07 14:59:20;;;;;;;1.65;1.55;;;16.90;99.90;;;;;;6202887;28;20431;-89
2021/08/07 15:02:21;;;;;;;2.33;1.65;;;17.00;99.90;;;;;;6170494;28;20056;-87
2021/08/07 15:05:22;;;;;;;1.75;1.65;;;17.20;99.90;;;;;;6187247;28;20069;-86
2021/08/07 15:08:23;;;;;;;5.20;3.45;;;;;;;;;;6233932;28;20046;-87
2021/08/07 15:11:24;;;;;;;1.60;1.40;;;17.30;99.90;;;;;;6299690;28;20343;-88
2021/08/07 15:14:25;;;;;;;2.13;1.52;;;17.30;99.90;;;;;;6302792;28;20060;-88
2021/08/07 15:17:25;;;;;;;3.03;1.65;;;17.40;99.90;;;;;;6304187;28;20073;-87
2021/08/07 15:20:26;;;;;;;1.70;1.60;;;;;;;;;;6286580;28;20036;-87
2021/08/07 15:23:27;;;;;;;8.18;2.20;;;17.10;99.90;;;;;;6318597;28;20016;-85
2021/08/07 15:26:28;;;;;;;2.88;2.05;;;17.20;99.90;;;;;;6301571;28;20369;-87
2021/08/07 15:29:29;;;;;;;2.92;2.45;;;17.10;99.90;;;;;;6285902;28;20051;-85
2021/08/07 15:32:29;;;;;;;3.55;2.35;;;17.50;99.90;;;;;;6301166;28;20044;-85
2021/08/07 15:35:30;;;;;;;3.33;1.98;;;17.50;99.90;;;;;;6302214;28;20028;-85
2021/08/07 15:38:31;;;;;;;2.35;2.10;;;;;;;;;;6285962;28;20347;-86
2021/08/07 15:41:32;;;;;;;1.92;1.83;;;;;;;;;;6319102;28;20085;-86
2021/08/07 15:44:33;;;;;;;2.67;1.70;;;;;;;;;;6301103;28;20020;-87
2021/08/07 15:47:34;;;;;;;2.63;1.90;;;;;;;;;;6317846;28;20069;-89
2021/08/07 15:50:36;;;;;;;3.58;2.40;;;17.00;99.90;;;;;;6318677;28;20361;-87
2021/08/07 15:53:38;;;;;;;2.75;1.92;;;16.90;99.90;;;;;;6283966;28;20048;-87
2021/08/07 15:56:39;;;;;;;3.03;1.65;;;;;;;;;;6285279;28;20454;-86
2021/08/07 15:59:40;;;;;;;3.42;1.75;;;;;;;;;;6283878;28;20081;-86
2021/08/07 16:02:41;;;;;;;1.70;1.55;;;;;;;;;;6285560;28;20082;-85
2021/08/07 16:05:41;;;;;;;1.80;1.70;;;17.10;99.90;;;;;;6318884;28;20389;-85
2021/08/07 16:08:42;;;;;;;2.17;1.40;;;17.50;99.90;;;;;;6301783;28;20042;-88
2021/08/07 16:11:43;;;;;;;1.52;1.42;;;17.40;99.90;;;;;;6302199;28;20020;-86
2021/08/07 16:14:43;;;;;;;1.30;1.20;;;17.40;99.90;;;;;;6285326;28;20025;-86